sensor_id;sensor_type;location;lat;lon;timestamp;temperature;humidity
10459;DHT22;5277;48.722;8.736;2023-11-21T00:00:00;7.90;99.90
10459;DHT22;5277;48.722;8.736;2023-11-21T00:02:26;8.00;99.90
10459;DHT22;5277;48.722;8.736;2023-11-21T00:04:53;8.00;99.90
10459;DHT22;5277;48.722;8.736;2023-11-21T00:07:19;8.10;99.90
10459;DHT22;5277;48.722;8.736;2023-11-21T00:09:46;8.10;99.90
10459;DHT22;5277;48.722;8.736;2023-11-21T00:12:12;8.10;99.90
10459;DHT22;5277;48.722;8.736;2023-11-21T00:14:39;8.20;99.90
10459;DHT22;5277;48.722;8.736;2023-11-21T00:17:05;8.20;99.90
10459;DHT22;5277;48.722;8.736;2023-11-21T00:19:32;8.20;99.90
10459;DHT22;5277;48.722;8.736;2023-11-21T00:21:58;8.30;99.90
10459;DHT22;5277;48.722;8.736;2023-11-21T00:24:24;8.20;99.90
10459;DHT22;5277;48.722;8.736;2023-11-21T00:26:50;8.30;99.90
10459;DHT22;5277;48.722;8.736;2023-11-21T00:29:16;8.30;99.90
10459;DHT22;5277;48.722;8.736;2023-11-21T00:31:43;8.30;99.90
10459;DHT22;5277;48.722;8.736;2023-11-21T00:34:11;8.30;99.90
10459;DHT22;5277;48.722;8.736;2023-11-21T00:36:37;8.30;99.90
10459;DHT22;5277;48.722;8.736;2023-11-21T00:39:03;8.40;99.90
10459;DHT22;5277;48.722;8.736;2023-11-21T00:41:29;8.40;99.90
10459;DHT22;5277;48.722;8.736;2023-11-21T00:43:54;8.40;99.90
10459;DHT22;5277;48.722;8.736;2023-11-21T00:46:20;8.50;99.90
10459;DHT22;5277;48.722;8.736;2023-11-21T00:48:46;8.50;99.90
10459;DHT22;5277;48.722;8.736;2023-11-21T00:51:12;8.50;99.90
10459;DHT22;5277;48.722;8.736;2023-11-21T00:53:38;8.50;99.90
10459;DHT22;5277;48.722;8.736;2023-11-21T00:56:03;8.50;99.90
10459;DHT22;5277;48.722;8.736;2023-11-21T00:58:29;8.50;99.90
10459;DHT22;5277;48.722;8.736;2023-11-21T01:00:55;8.50;99.90
10459;DHT22;5277;48.722;8.736;2023-11-21T01:03:21;8.60;99.90
10459;DHT22;5277;48.722;8.736;2023-11-21T01:05:47;8.60;99.90
10459;DHT22;5277;48.722;8.736;2023-11-21T01:08:15;8.50;99.90
10459;DHT22;5277;48.722;8.736;2023-11-21T01:10:41;8.50;99.90
10459;DHT22;5277;48.722;8.736;2023-11-21T01:13:06;8.50;99.90
10459;DHT22;5277;48.722;8.736;2023-11-21T01:15:33;8.60;99.90
10459;DHT22;5277;48.722;8.736;2023-11-21T01:17:59;8.60;99.90
10459;DHT22;5277;48.722;8.736;2023-11-21T01:20:24;8.60;99.90
10459;DHT22;5277;48.722;8.736;2023-11-21T01:22:50;8.70;99.90
10459;DHT22;5277;48.722;8.736;2023-11-21T01:25:15;8.70;99.90
10459;DHT22;5277;48.722;8.736;2023-11-21T01:27:42;8.70;99.90
10459;DHT22;5277;48.722;8.736;2023-11-21T01:30:08;8.70;99.90
10459;DHT22;5277;48.722;8.736;2023-11-21T01:32:36;8.70;99.90
10459;DHT22;5277;48.722;8.736;2023-11-21T01:35:02;8.70;99.90
10459;DHT22;5277;48.722;8.736;2023-11-21T01:37:28;8.70;99.90
10459;DHT22;5277;48.722;8.736;2023-11-21T01:39:54;8.70;99.90
10459;DHT22;5277;48.722;8.736;2023-11-21T01:42:24;8.80;99.90
10459;DHT22;5277;48.722;8.736;2023-11-21T01:44:50;8.80;99.90
10459;DHT22;5277;48.722;8.736;2023-11-21T01:47:16;8.80;99.90
10459;DHT22;5277;48.722;8.736;2023-11-21T01:49:45;8.80;99.90
10459;DHT22;5277;48.722;8.736;2023-11-21T01:52:12;8.80;99.90
10459;DHT22;5277;48.722;8.736;2023-11-21T01:54:38;8.80;99.90
10459;DHT22;5277;48.722;8.736;2023-11-21T01:57:04;8.80;99.90
10459;DHT22;5277;48.722;8.736;2023-11-21T01:59:36;8.80;99.90
10459;DHT22;5277;48.722;8.736;2023-11-21T02:02:05;8.80;99.90
10459;DHT22;5277;48.722;8.736;2023-11-21T02:04:35;8.80;99.90
10459;DHT22;5277;48.722;8.736;2023-11-21T02:07:02;8.80;99.90
10459;DHT22;5277;48.722;8.736;2023-11-21T02:09:31;8.80;99.90
10459;DHT22;5277;48.722;8.736;2023-11-21T02:11:58;8.80;99.90
10459;DHT22;5277;48.722;8.736;2023-11-21T02:14:25;8.80;99.90
10459;DHT22;5277;48.722;8.736;2023-11-21T02:16:53;8.70;99.90
10459;DHT22;5277;48.722;8.736;2023-11-21T02:19:20;8.70;99.90
10459;DHT22;5277;48.722;8.736;2023-11-21T02:21:51;8.70;99.90
10459;DHT22;5277;48.722;8.736;2023-11-21T02:24:19;8.70;99.90
10459;DHT22;5277;48.722;8.736;2023-11-21T02:26:45;8.70;99.90
10459;DHT22;5277;48.722;8.736;2023-11-21T02:29:11;8.70;99.90
10459;DHT22;5277;48.722;8.736;2023-11-21T02:31:38;8.70;99.90
10459;DHT22;5277;48.722;8.736;2023-11-21T02:34:16;8.70;99.90
10459;DHT22;5277;48.722;8.736;2023-11-21T02:36:43;8.70;99.90
10459;DHT22;5277;48.722;8.736;2023-11-21T02:39:10;8.70;99.90
10459;DHT22;5277;48.722;8.736;2023-11-21T02:41:39;8.70;99.90
10459;DHT22;5277;48.722;8.736;2023-11-21T02:44:06;8.70;99.90
10459;DHT22;5277;48.722;8.736;2023-11-21T02:46:33;8.70;99.90
10459;DHT22;5277;48.722;8.736;2023-11-21T02:49:00;8.70;99.90
10459;DHT22;5277;48.722;8.736;2023-11-21T02:51:26;8.80;99.90
10459;DHT22;5277;48.722;8.736;2023-11-21T02:53:51;8.70;99.90
10459;DHT22;5277;48.722;8.736;2023-11-21T02:56:17;8.70;99.90
10459;DHT22;5277;48.722;8.736;2023-11-21T02:58:45;8.70;99.90
10459;DHT22;5277;48.722;8.736;2023-11-21T03:01:10;8.80;99.90
10459;DHT22;5277;48.722;8.736;2023-11-21T03:03:39;8.80;99.90
10459;DHT22;5277;48.722;8.736;2023-11-21T03:06:06;8.80;99.90
10459;DHT22;5277;48.722;8.736;2023-11-21T03:08:31;8.80;99.90
10459;DHT22;5277;48.722;8.736;2023-11-21T03:10:58;8.70;99.90
10459;DHT22;5277;48.722;8.736;2023-11-21T03:13:23;8.70;99.90
10459;DHT22;5277;48.722;8.736;2023-11-21T03:15:49;8.70;99.90
10459;DHT22;5277;48.722;8.736;2023-11-21T03:18:15;8.70;99.90
10459;DHT22;5277;48.722;8.736;2023-11-21T03:20:41;8.80;99.90
10459;DHT22;5277;48.722;8.736;2023-11-21T03:23:07;8.80;99.90
10459;DHT22;5277;48.722;8.736;2023-11-21T03:25:32;8.80;99.90
10459;DHT22;5277;48.722;8.736;2023-11-21T03:27:58;8.80;99.90
10459;DHT22;5277;48.722;8.736;2023-11-21T03:30:23;8.90;99.90
10459;DHT22;5277;48.722;8.736;2023-11-21T03:32:49;8.80;99.90
10459;DHT22;5277;48.722;8.736;2023-11-21T03:35:15;8.80;99.90
10459;DHT22;5277;48.722;8.736;2023-11-21T03:37:40;8.80;99.90
10459;DHT22;5277;48.722;8.736;2023-11-21T03:40:07;8.80;99.90
10459;DHT22;5277;48.722;8.736;2023-11-21T03:42:38;8.70;99.90
10459;DHT22;5277;48.722;8.736;2023-11-21T03:45:05;8.70;99.90
10459;DHT22;5277;48.722;8.736;2023-11-21T03:47:30;8.70;99.90
10459;DHT22;5277;48.722;8.736;2023-11-21T03:49:56;8.80;99.90
10459;DHT22;5277;48.722;8.736;2023-11-21T03:52:21;8.80;99.90
10459;DHT22;5277;48.722;8.736;2023-11-21T03:54:47;8.70;99.90
10459;DHT22;5277;48.722;8.736;2023-11-21T03:57:13;8.70;99.90
10459;DHT22;5277;48.722;8.736;2023-11-21T03:59:42;8.70;99.90
10459;DHT22;5277;48.722;8.736;2023-11-21T04:02:08;8.80;99.90
10459;DHT22;5277;48.722;8.736;2023-11-21T04:04:34;8.70;99.90
10459;DHT22;5277;48.722;8.736;2023-11-21T04:07:00;8.70;99.90
10459;DHT22;5277;48.722;8.736;2023-11-21T04:09:25;8.70;99.90
10459;DHT22;5277;48.722;8.736;2023-11-21T04:11:52;8.70;99.90
10459;DHT22;5277;48.722;8.736;2023-11-21T04:14:18;8.70;99.90
10459;DHT22;5277;48.722;8.736;2023-11-21T04:16:43;8.70;99.90
10459;DHT22;5277;48.722;8.736;2023-11-21T04:19:09;8.70;99.90
10459;DHT22;5277;48.722;8.736;2023-11-21T04:21:39;8.80;99.90
10459;DHT22;5277;48.722;8.736;2023-11-21T04:24:05;8.80;99.90
10459;DHT22;5277;48.722;8.736;2023-11-21T04:26:31;8.80;99.90
10459;DHT22;5277;48.722;8.736;2023-11-21T04:28:57;8.80;99.90
10459;DHT22;5277;48.722;8.736;2023-11-21T04:31:22;8.80;99.90
10459;DHT22;5277;48.722;8.736;2023-11-21T04:33:48;8.80;99.90
10459;DHT22;5277;48.722;8.736;2023-11-21T04:36:14;8.80;99.90
10459;DHT22;5277;48.722;8.736;2023-11-21T04:38:39;8.80;99.90
10459;DHT22;5277;48.722;8.736;2023-11-21T04:41:06;8.80;99.90
10459;DHT22;5277;48.722;8.736;2023-11-21T04:43:31;8.80;99.90
10459;DHT22;5277;48.722;8.736;2023-11-21T04:45:57;8.80;99.90
10459;DHT22;5277;48.722;8.736;2023-11-21T04:48:22;8.90;99.90
10459;DHT22;5277;48.722;8.736;2023-11-21T04:50:48;8.90;99.90
10459;DHT22;5277;48.722;8.736;2023-11-21T04:53:14;8.90;99.90
10459;DHT22;5277;48.722;8.736;2023-11-21T04:55:40;8.90;99.90
10459;DHT22;5277;48.722;8.736;2023-11-21T04:58:06;8.90;99.90
10459;DHT22;5277;48.722;8.736;2023-11-21T05:00:31;8.90;99.90
10459;DHT22;5277;48.722;8.736;2023-11-21T05:02:57;8.90;99.90
10459;DHT22;5277;48.722;8.736;2023-11-21T05:05:23;8.90;99.90
10459;DHT22;5277;48.722;8.736;2023-11-21T05:07:49;8.90;99.90
10459;DHT22;5277;48.722;8.736;2023-11-21T05:10:14;8.90;99.90
10459;DHT22;5277;48.722;8.736;2023-11-21T05:12:41;8.90;99.90
10459;DHT22;5277;48.722;8.736;2023-11-21T05:15:07;8.90;99.90
10459;DHT22;5277;48.722;8.736;2023-11-21T05:17:37;8.90;99.90
10459;DHT22;5277;48.722;8.736;2023-11-21T05:20:06;8.90;99.90
10459;DHT22;5277;48.722;8.736;2023-11-21T05:22:34;9.00;99.90
10459;DHT22;5277;48.722;8.736;2023-11-21T05:25:01;9.00;99.90
10459;DHT22;5277;48.722;8.736;2023-11-21T05:27:28;8.90;99.90
10459;DHT22;5277;48.722;8.736;2023-11-21T05:29:53;8.90;99.90
10459;DHT22;5277;48.722;8.736;2023-11-21T05:32:19;9.00;99.90
10459;DHT22;5277;48.722;8.736;2023-11-21T05:34:44;8.90;99.90
10459;DHT22;5277;48.722;8.736;2023-11-21T05:37:10;9.00;99.90
10459;DHT22;5277;48.722;8.736;2023-11-21T05:39:35;9.00;99.90
10459;DHT22;5277;48.722;8.736;2023-11-21T05:42:01;9.00;99.90
10459;DHT22;5277;48.722;8.736;2023-11-21T05:44:27;9.00;99.90
10459;DHT22;5277;48.722;8.736;2023-11-21T05:46:52;9.00;99.90
10459;DHT22;5277;48.722;8.736;2023-11-21T05:49:18;8.90;99.90
10459;DHT22;5277;48.722;8.736;2023-11-21T05:51:47;9.00;99.90
10459;DHT22;5277;48.722;8.736;2023-11-21T05:54:12;8.90;99.90
10459;DHT22;5277;48.722;8.736;2023-11-21T05:56:38;8.90;99.90
10459;DHT22;5277;48.722;8.736;2023-11-21T05:59:04;8.90;99.90
10459;DHT22;5277;48.722;8.736;2023-11-21T06:01:29;9.00;99.90
10459;DHT22;5277;48.722;8.736;2023-11-21T06:03:55;8.90;99.90
10459;DHT22;5277;48.722;8.736;2023-11-21T06:06:21;8.90;99.90
10459;DHT22;5277;48.722;8.736;2023-11-21T06:08:48;8.90;99.90
10459;DHT22;5277;48.722;8.736;2023-11-21T06:11:14;8.90;99.90
10459;DHT22;5277;48.722;8.736;2023-11-21T06:13:41;8.90;99.90
10459;DHT22;5277;48.722;8.736;2023-11-21T06:16:08;8.90;99.90
10459;DHT22;5277;48.722;8.736;2023-11-21T06:18:34;9.00;99.90
10459;DHT22;5277;48.722;8.736;2023-11-21T06:21:00;8.90;99.90
10459;DHT22;5277;48.722;8.736;2023-11-21T06:23:26;9.00;99.90
10459;DHT22;5277;48.722;8.736;2023-11-21T06:25:52;9.00;99.90
10459;DHT22;5277;48.722;8.736;2023-11-21T06:28:18;9.00;99.90
10459;DHT22;5277;48.722;8.736;2023-11-21T06:30:44;9.00;99.90
10459;DHT22;5277;48.722;8.736;2023-11-21T06:33:10;9.00;99.90
10459;DHT22;5277;48.722;8.736;2023-11-21T06:35:36;9.00;99.90
10459;DHT22;5277;48.722;8.736;2023-11-21T06:38:02;9.00;99.90
10459;DHT22;5277;48.722;8.736;2023-11-21T06:40:28;9.00;99.90
10459;DHT22;5277;48.722;8.736;2023-11-21T06:42:54;9.10;99.90
10459;DHT22;5277;48.722;8.736;2023-11-21T06:45:19;9.00;99.90
10459;DHT22;5277;48.722;8.736;2023-11-21T06:47:48;9.00;99.90
10459;DHT22;5277;48.722;8.736;2023-11-21T06:50:14;9.10;99.90
10459;DHT22;5277;48.722;8.736;2023-11-21T06:52:39;9.10;99.90
10459;DHT22;5277;48.722;8.736;2023-11-21T06:55:05;9.00;99.90
10459;DHT22;5277;48.722;8.736;2023-11-21T06:57:33;9.00;99.90
10459;DHT22;5277;48.722;8.736;2023-11-21T06:59:59;9.00;99.90
10459;DHT22;5277;48.722;8.736;2023-11-21T07:02:25;9.00;99.90
10459;DHT22;5277;48.722;8.736;2023-11-21T07:04:50;9.00;99.90
10459;DHT22;5277;48.722;8.736;2023-11-21T07:07:16;9.00;99.90
10459;DHT22;5277;48.722;8.736;2023-11-21T07:09:41;9.00;99.90
10459;DHT22;5277;48.722;8.736;2023-11-21T07:12:07;9.00;99.90
10459;DHT22;5277;48.722;8.736;2023-11-21T07:14:34;9.00;99.90
10459;DHT22;5277;48.722;8.736;2023-11-21T07:17:00;9.00;99.90
10459;DHT22;5277;48.722;8.736;2023-11-21T07:19:25;9.00;99.90
10459;DHT22;5277;48.722;8.736;2023-11-21T07:21:51;9.00;99.90
10459;DHT22;5277;48.722;8.736;2023-11-21T07:24:17;9.00;99.90
10459;DHT22;5277;48.722;8.736;2023-11-21T07:26:42;9.00;99.90
10459;DHT22;5277;48.722;8.736;2023-11-21T07:29:08;9.00;99.90
10459;DHT22;5277;48.722;8.736;2023-11-21T07:31:34;9.10;99.90
10459;DHT22;5277;48.722;8.736;2023-11-21T07:34:00;9.10;99.90
10459;DHT22;5277;48.722;8.736;2023-11-21T07:36:26;9.10;99.90
10459;DHT22;5277;48.722;8.736;2023-11-21T07:38:52;9.10;99.90
10459;DHT22;5277;48.722;8.736;2023-11-21T07:41:18;9.10;99.90
10459;DHT22;5277;48.722;8.736;2023-11-21T07:43:47;9.10;99.90
10459;DHT22;5277;48.722;8.736;2023-11-21T07:46:13;9.20;99.90
10459;DHT22;5277;48.722;8.736;2023-11-21T07:48:39;9.20;99.90
10459;DHT22;5277;48.722;8.736;2023-11-21T07:51:06;9.20;99.90
10459;DHT22;5277;48.722;8.736;2023-11-21T07:53:35;9.20;99.90
10459;DHT22;5277;48.722;8.736;2023-11-21T07:56:05;9.20;99.90
10459;DHT22;5277;48.722;8.736;2023-11-21T07:58:33;9.30;99.90
10459;DHT22;5277;48.722;8.736;2023-11-21T08:00:59;9.30;99.90
10459;DHT22;5277;48.722;8.736;2023-11-21T08:03:25;9.30;99.90
10459;DHT22;5277;48.722;8.736;2023-11-21T08:05:52;9.40;99.90
10459;DHT22;5277;48.722;8.736;2023-11-21T08:08:18;9.40;99.90
10459;DHT22;5277;48.722;8.736;2023-11-21T08:10:44;9.40;99.90
10459;DHT22;5277;48.722;8.736;2023-11-21T08:13:14;9.50;99.90
10459;DHT22;5277;48.722;8.736;2023-11-21T08:15:41;9.60;99.90
10459;DHT22;5277;48.722;8.736;2023-11-21T08:18:11;9.60;99.90
10459;DHT22;5277;48.722;8.736;2023-11-21T08:20:38;9.70;99.90
10459;DHT22;5277;48.722;8.736;2023-11-21T08:23:05;9.70;99.90
10459;DHT22;5277;48.722;8.736;2023-11-21T08:25:31;9.80;99.90
10459;DHT22;5277;48.722;8.736;2023-11-21T08:27:57;9.90;99.90
10459;DHT22;5277;48.722;8.736;2023-11-21T08:30:23;9.90;99.90
10459;DHT22;5277;48.722;8.736;2023-11-21T08:32:49;9.90;99.90
10459;DHT22;5277;48.722;8.736;2023-11-21T08:35:17;10.00;99.90
10459;DHT22;5277;48.722;8.736;2023-11-21T08:37:43;10.00;99.90
10459;DHT22;5277;48.722;8.736;2023-11-21T08:40:09;10.10;99.90
10459;DHT22;5277;48.722;8.736;2023-11-21T08:42:35;10.10;99.90
10459;DHT22;5277;48.722;8.736;2023-11-21T08:45:01;10.20;99.90
10459;DHT22;5277;48.722;8.736;2023-11-21T08:47:27;10.20;99.90
10459;DHT22;5277;48.722;8.736;2023-11-21T08:49:52;10.30;99.90
10459;DHT22;5277;48.722;8.736;2023-11-21T08:52:19;10.40;99.90
10459;DHT22;5277;48.722;8.736;2023-11-21T08:54:48;10.40;99.90
10459;DHT22;5277;48.722;8.736;2023-11-21T08:57:23;10.50;99.90
10459;DHT22;5277;48.722;8.736;2023-11-21T08:59:49;10.60;99.90
10459;DHT22;5277;48.722;8.736;2023-11-21T09:02:21;10.60;99.90
10459;DHT22;5277;48.722;8.736;2023-11-21T09:04:47;10.60;99.90
10459;DHT22;5277;48.722;8.736;2023-11-21T09:07:12;10.70;99.90
10459;DHT22;5277;48.722;8.736;2023-11-21T09:09:38;10.70;99.90
10459;DHT22;5277;48.722;8.736;2023-11-21T09:12:04;10.80;99.90
10459;DHT22;5277;48.722;8.736;2023-11-21T09:14:29;10.90;99.90
10459;DHT22;5277;48.722;8.736;2023-11-21T09:16:55;10.90;99.90
10459;DHT22;5277;48.722;8.736;2023-11-21T09:19:21;10.90;99.90
10459;DHT22;5277;48.722;8.736;2023-11-21T09:21:47;10.90;99.90
10459;DHT22;5277;48.722;8.736;2023-11-21T09:24:12;10.80;99.90
10459;DHT22;5277;48.722;8.736;2023-11-21T09:26:38;10.80;99.90
10459;DHT22;5277;48.722;8.736;2023-11-21T09:29:04;10.80;99.90
10459;DHT22;5277;48.722;8.736;2023-11-21T09:31:29;10.80;99.90
10459;DHT22;5277;48.722;8.736;2023-11-21T09:33:56;10.80;99.90
10459;DHT22;5277;48.722;8.736;2023-11-21T09:36:22;10.80;99.90
10459;DHT22;5277;48.722;8.736;2023-11-21T09:38:52;10.70;99.90
10459;DHT22;5277;48.722;8.736;2023-11-21T09:41:32;10.70;99.90
10459;DHT22;5277;48.722;8.736;2023-11-21T09:44:02;10.70;99.90
10459;DHT22;5277;48.722;8.736;2023-11-21T09:46:33;10.70;99.90
10459;DHT22;5277;48.722;8.736;2023-11-21T09:49:00;10.70;99.90
10459;DHT22;5277;48.722;8.736;2023-11-21T09:51:27;10.70;99.90
10459;DHT22;5277;48.722;8.736;2023-11-21T09:53:57;10.70;99.90
10459;DHT22;5277;48.722;8.736;2023-11-21T09:56:24;10.70;99.90
10459;DHT22;5277;48.722;8.736;2023-11-21T09:58:53;10.70;99.90
10459;DHT22;5277;48.722;8.736;2023-11-21T10:01:19;10.80;99.90
10459;DHT22;5277;48.722;8.736;2023-11-21T10:03:46;10.80;99.90
10459;DHT22;5277;48.722;8.736;2023-11-21T10:06:13;10.80;99.90
10459;DHT22;5277;48.722;8.736;2023-11-21T10:08:40;10.90;99.90
10459;DHT22;5277;48.722;8.736;2023-11-21T10:11:06;11.00;99.90
10459;DHT22;5277;48.722;8.736;2023-11-21T10:13:34;11.00;99.90
10459;DHT22;5277;48.722;8.736;2023-11-21T10:16:00;11.10;99.90
10459;DHT22;5277;48.722;8.736;2023-11-21T10:18:31;11.10;99.90
10459;DHT22;5277;48.722;8.736;2023-11-21T10:20:59;11.20;99.90
10459;DHT22;5277;48.722;8.736;2023-11-21T10:23:26;11.30;99.90
10459;DHT22;5277;48.722;8.736;2023-11-21T10:25:52;11.30;99.90
10459;DHT22;5277;48.722;8.736;2023-11-21T10:28:18;11.40;99.90
10459;DHT22;5277;48.722;8.736;2023-11-21T10:30:44;11.40;99.90
10459;DHT22;5277;48.722;8.736;2023-11-21T10:33:10;11.50;99.90
10459;DHT22;5277;48.722;8.736;2023-11-21T10:38:08;11.50;99.90
10459;DHT22;5277;48.722;8.736;2023-11-21T10:40:40;11.50;99.90
10459;DHT22;5277;48.722;8.736;2023-11-21T10:43:07;11.60;99.90
10459;DHT22;5277;48.722;8.736;2023-11-21T10:45:39;11.60;99.90
10459;DHT22;5277;48.722;8.736;2023-11-21T10:48:09;11.60;99.90
10459;DHT22;5277;48.722;8.736;2023-11-21T10:50:40;11.70;99.90
10459;DHT22;5277;48.722;8.736;2023-11-21T10:53:06;11.70;99.90
10459;DHT22;5277;48.722;8.736;2023-11-21T10:55:33;11.80;99.90
10459;DHT22;5277;48.722;8.736;2023-11-21T10:58:00;11.90;99.90
10459;DHT22;5277;48.722;8.736;2023-11-21T11:00:28;11.90;99.90
10459;DHT22;5277;48.722;8.736;2023-11-21T11:02:54;11.90;99.90
10459;DHT22;5277;48.722;8.736;2023-11-21T11:05:22;12.00;99.90
10459;DHT22;5277;48.722;8.736;2023-11-21T11:07:51;11.90;99.90
10459;DHT22;5277;48.722;8.736;2023-11-21T11:10:22;11.90;99.90
10459;DHT22;5277;48.722;8.736;2023-11-21T11:12:51;11.90;99.90
10459;DHT22;5277;48.722;8.736;2023-11-21T11:15:17;11.90;99.90
10459;DHT22;5277;48.722;8.736;2023-11-21T11:17:45;11.80;99.90
10459;DHT22;5277;48.722;8.736;2023-11-21T11:20:13;11.80;99.90
10459;DHT22;5277;48.722;8.736;2023-11-21T11:23:08;11.80;99.90
10459;DHT22;5277;48.722;8.736;2023-11-21T11:26:02;11.70;99.90
10459;DHT22;5277;48.722;8.736;2023-11-21T11:34:34;11.50;99.90
10459;DHT22;5277;48.722;8.736;2023-11-21T11:37:04;11.40;99.90
10459;DHT22;5277;48.722;8.736;2023-11-21T11:39:41;11.40;99.90
10459;DHT22;5277;48.722;8.736;2023-11-21T11:42:27;11.40;99.90
10459;DHT22;5277;48.722;8.736;2023-11-21T11:44:53;11.40;99.90
10459;DHT22;5277;48.722;8.736;2023-11-21T11:47:26;11.30;99.90
10459;DHT22;5277;48.722;8.736;2023-11-21T11:50:10;11.40;99.90
10459;DHT22;5277;48.722;8.736;2023-11-21T11:52:47;11.40;99.90
10459;DHT22;5277;48.722;8.736;2023-11-21T11:55:15;11.40;99.90
10459;DHT22;5277;48.722;8.736;2023-11-21T11:57:45;11.40;99.90
10459;DHT22;5277;48.722;8.736;2023-11-21T12:00:32;11.40;99.90
10459;DHT22;5277;48.722;8.736;2023-11-21T12:03:03;11.50;99.90
10459;DHT22;5277;48.722;8.736;2023-11-21T12:05:30;11.50;99.90
10459;DHT22;5277;48.722;8.736;2023-11-21T12:08:00;11.50;99.90
10459;DHT22;5277;48.722;8.736;2023-11-21T12:10:32;11.50;99.90
10459;DHT22;5277;48.722;8.736;2023-11-21T12:12:59;11.50;99.90
10459;DHT22;5277;48.722;8.736;2023-11-21T12:15:25;11.50;99.90
10459;DHT22;5277;48.722;8.736;2023-11-21T12:17:52;11.50;99.90
10459;DHT22;5277;48.722;8.736;2023-11-21T12:20:22;11.50;99.90
10459;DHT22;5277;48.722;8.736;2023-11-21T12:22:52;11.50;99.90
10459;DHT22;5277;48.722;8.736;2023-11-21T12:25:21;11.50;99.90
10459;DHT22;5277;48.722;8.736;2023-11-21T12:27:52;11.50;99.90
10459;DHT22;5277;48.722;8.736;2023-11-21T12:30:22;11.50;99.90
10459;DHT22;5277;48.722;8.736;2023-11-21T12:32:52;11.50;99.90
10459;DHT22;5277;48.722;8.736;2023-11-21T12:35:20;11.50;99.90
10459;DHT22;5277;48.722;8.736;2023-11-21T12:37:47;11.40;99.90
10459;DHT22;5277;48.722;8.736;2023-11-21T12:40:13;11.40;99.90
10459;DHT22;5277;48.722;8.736;2023-11-21T12:42:45;11.40;99.90
10459;DHT22;5277;48.722;8.736;2023-11-21T12:45:23;11.40;99.90
10459;DHT22;5277;48.722;8.736;2023-11-21T12:47:59;11.30;99.90
10459;DHT22;5277;48.722;8.736;2023-11-21T12:50:30;11.30;99.90
10459;DHT22;5277;48.722;8.736;2023-11-21T12:53:07;11.30;99.90
10459;DHT22;5277;48.722;8.736;2023-11-21T12:55:43;11.20;99.90
10459;DHT22;5277;48.722;8.736;2023-11-21T12:58:09;11.10;99.90
10459;DHT22;5277;48.722;8.736;2023-11-21T13:00:39;11.10;99.90
10459;DHT22;5277;48.722;8.736;2023-11-21T13:03:08;11.00;99.90
10459;DHT22;5277;48.722;8.736;2023-11-21T13:05:35;11.00;99.90
10459;DHT22;5277;48.722;8.736;2023-11-21T13:08:04;11.00;99.90
10459;DHT22;5277;48.722;8.736;2023-11-21T13:10:34;11.00;99.90
10459;DHT22;5277;48.722;8.736;2023-11-21T13:13:03;11.00;99.90
10459;DHT22;5277;48.722;8.736;2023-11-21T13:15:48;11.00;99.90
10459;DHT22;5277;48.722;8.736;2023-11-21T13:18:14;11.00;99.90
10459;DHT22;5277;48.722;8.736;2023-11-21T13:20:40;11.10;99.90
10459;DHT22;5277;48.722;8.736;2023-11-21T13:23:10;11.10;99.90
10459;DHT22;5277;48.722;8.736;2023-11-21T13:25:41;11.20;99.90
10459;DHT22;5277;48.722;8.736;2023-11-21T13:28:07;11.20;99.90
10459;DHT22;5277;48.722;8.736;2023-11-21T13:30:33;11.20;99.90
10459;DHT22;5277;48.722;8.736;2023-11-21T13:33:03;11.20;99.90
10459;DHT22;5277;48.722;8.736;2023-11-21T13:35:37;11.30;99.90
10459;DHT22;5277;48.722;8.736;2023-11-21T13:38:09;11.30;99.90
10459;DHT22;5277;48.722;8.736;2023-11-21T13:40:36;11.20;99.90
10459;DHT22;5277;48.722;8.736;2023-11-21T13:43:10;11.20;99.90
10459;DHT22;5277;48.722;8.736;2023-11-21T13:45:45;11.20;99.90
10459;DHT22;5277;48.722;8.736;2023-11-21T13:48:12;11.10;99.90
10459;DHT22;5277;48.722;8.736;2023-11-21T13:51:01;10.90;99.90
10459;DHT22;5277;48.722;8.736;2023-11-21T13:53:36;10.80;99.90
10459;DHT22;5277;48.722;8.736;2023-11-21T13:56:03;10.80;99.90
10459;DHT22;5277;48.722;8.736;2023-11-21T13:58:29;10.70;99.90
10459;DHT22;5277;48.722;8.736;2023-11-21T14:01:12;10.70;99.90
10459;DHT22;5277;48.722;8.736;2023-11-21T14:03:56;10.70;99.90
10459;DHT22;5277;48.722;8.736;2023-11-21T14:06:27;10.60;99.90
10459;DHT22;5277;48.722;8.736;2023-11-21T14:09:00;10.60;99.90
10459;DHT22;5277;48.722;8.736;2023-11-21T14:11:31;10.60;99.90
10459;DHT22;5277;48.722;8.736;2023-11-21T14:13:56;10.60;99.90
10459;DHT22;5277;48.722;8.736;2023-11-21T14:16:24;10.60;99.90
10459;DHT22;5277;48.722;8.736;2023-11-21T14:18:50;10.60;99.90
10459;DHT22;5277;48.722;8.736;2023-11-21T14:21:22;10.60;99.90
10459;DHT22;5277;48.722;8.736;2023-11-21T14:23:49;10.60;99.90
10459;DHT22;5277;48.722;8.736;2023-11-21T14:26:15;10.60;99.90
10459;DHT22;5277;48.722;8.736;2023-11-21T14:28:42;10.60;99.90
10459;DHT22;5277;48.722;8.736;2023-11-21T14:31:08;10.70;99.90
10459;DHT22;5277;48.722;8.736;2023-11-21T14:33:39;10.70;99.90
10459;DHT22;5277;48.722;8.736;2023-11-21T14:36:05;10.70;99.90
10459;DHT22;5277;48.722;8.736;2023-11-21T14:38:33;10.70;99.90
10459;DHT22;5277;48.722;8.736;2023-11-21T14:40:59;10.70;99.90
10459;DHT22;5277;48.722;8.736;2023-11-21T14:43:24;10.70;99.90
10459;DHT22;5277;48.722;8.736;2023-11-21T14:45:51;10.70;99.90
10459;DHT22;5277;48.722;8.736;2023-11-21T14:48:16;10.70;99.90
10459;DHT22;5277;48.722;8.736;2023-11-21T14:50:53;10.70;99.90
10459;DHT22;5277;48.722;8.736;2023-11-21T14:53:27;10.70;99.90
10459;DHT22;5277;48.722;8.736;2023-11-21T14:56:13;10.70;99.90
10459;DHT22;5277;48.722;8.736;2023-11-21T14:58:46;10.60;99.90
10459;DHT22;5277;48.722;8.736;2023-11-21T15:01:13;10.50;99.90
10459;DHT22;5277;48.722;8.736;2023-11-21T15:03:38;10.40;99.90
10459;DHT22;5277;48.722;8.736;2023-11-21T15:06:13;10.30;99.90
10459;DHT22;5277;48.722;8.736;2023-11-21T15:08:51;10.10;99.90
10459;DHT22;5277;48.722;8.736;2023-11-21T15:11:32;10.00;99.90
10459;DHT22;5277;48.722;8.736;2023-11-21T15:13:58;10.00;99.90
10459;DHT22;5277;48.722;8.736;2023-11-21T15:16:25;10.00;99.90
10459;DHT22;5277;48.722;8.736;2023-11-21T15:18:53;9.90;99.90
10459;DHT22;5277;48.722;8.736;2023-11-21T15:21:20;9.90;99.90
10459;DHT22;5277;48.722;8.736;2023-11-21T15:23:47;9.90;99.90
10459;DHT22;5277;48.722;8.736;2023-11-21T15:26:13;9.90;99.90
10459;DHT22;5277;48.722;8.736;2023-11-21T15:28:38;9.90;99.90
10459;DHT22;5277;48.722;8.736;2023-11-21T15:31:04;9.90;99.90
10459;DHT22;5277;48.722;8.736;2023-11-21T15:33:30;9.80;99.90
10459;DHT22;5277;48.722;8.736;2023-11-21T15:35:56;9.80;99.90
10459;DHT22;5277;48.722;8.736;2023-11-21T15:38:23;9.80;99.90
10459;DHT22;5277;48.722;8.736;2023-11-21T15:40:49;9.80;99.90
10459;DHT22;5277;48.722;8.736;2023-11-21T15:43:15;9.80;99.90
10459;DHT22;5277;48.722;8.736;2023-11-21T15:45:41;9.80;99.90
10459;DHT22;5277;48.722;8.736;2023-11-21T15:48:07;9.80;99.90
10459;DHT22;5277;48.722;8.736;2023-11-21T15:50:35;9.80;99.90
10459;DHT22;5277;48.722;8.736;2023-11-21T15:53:01;9.80;99.90
10459;DHT22;5277;48.722;8.736;2023-11-21T15:55:28;9.80;99.90
10459;DHT22;5277;48.722;8.736;2023-11-21T15:57:54;9.80;99.90
10459;DHT22;5277;48.722;8.736;2023-11-21T16:00:19;9.80;99.90
10459;DHT22;5277;48.722;8.736;2023-11-21T16:02:47;9.80;99.90
10459;DHT22;5277;48.722;8.736;2023-11-21T16:05:13;9.80;99.90